Time;durP1;ratioP1;P1;durP2;ratioP2;P2;SDS_P1;SDS_P2;PMS_P1;PMS_P2;Temp;Humidity;BMP_temperature;BMP_pressure;BME280_temperature;BME280_humidity;BME280_pressure;Samples;Min_cycle;Max_cycle;Signal;HPM_P1;HPM_P2
2020/12/22 00:00:36;;;;;;;4.32;3.13;;;;;;;;;;6217658;23;20029;-81
2020/12/22 00:03:03;;;;;;;5.75;3.58;;;;;;;;;;6191085;22;20020;-81
2020/12/22 00:05:30;;;;;;;6.47;3.33;;;;;;;;;;6190827;23;20468;-81
2020/12/22 00:07:56;;;;;;;5.28;3.22;;;;;;;;;;6193278;23;20035;-81
2020/12/22 00:10:22;;;;;;;5.88;3.47;;;;;;;;;;6220446;22;20044;-81
2020/12/22 00:12:48;;;;;;;6.82;3.58;;;;;;;;;;6191222;22;20020;-81
2020/12/22 00:15:14;;;;;;;5.55;3.55;;;;;;;;;;6217515;23;20040;-81
2020/12/22 00:17:42;;;;;;;4.97;3.38;;;;;;;;;;6217071;23;20016;-81
2020/12/22 00:20:08;;;;;;;5.13;3.17;;;;;;;;;;6217851;23;20154;-81
2020/12/22 00:22:35;;;;;;;5.95;4.00;;;;;;;;;;6217899;23;20375;-81
2020/12/22 00:25:01;;;;;;;4.70;3.20;;;;;;;;;;6190364;23;20042;-81
2020/12/22 00:27:31;;;;;;;5.80;3.30;;;;;;;;;;6217697;23;20016;-81
2020/12/22 00:29:57;;;;;;;4.82;3.30;;;;;;;;;;6192246;23;20024;-81
2020/12/22 00:32:23;;;;;;;5.10;3.05;;;;;;;;;;6217534;23;20016;-81
2020/12/22 00:34:49;;;;;;;5.00;2.88;;;;;;;;;;6217530;23;20021;-80
2020/12/22 00:37:15;;;;;;;4.10;2.90;;;;;;;;;;6217154;23;20017;-81
2020/12/22 00:39:42;;;;;;;4.13;2.70;;;;;;;;;;6218160;22;20020;-81
2020/12/22 00:42:08;;;;;;;5.25;3.30;;;;;;;;;;6218265;23;20016;-81
2020/12/22 00:44:34;;;;;;;5.40;3.00;;;;;;;;;;6217748;23;20147;-81
2020/12/22 00:47:00;;;;;;;4.90;2.85;;;;;;;;;;6216007;23;20024;-82
2020/12/22 00:49:26;;;;;;;6.60;3.88;;;;;;;;;;6217588;22;20017;-81
2020/12/22 00:51:53;;;;;;;4.53;2.90;;;;;;;;;;6218037;22;20053;-81
2020/12/22 00:54:19;;;;;;;6.07;3.45;;;;;;;;;;6216075;23;20012;-81
2020/12/22 00:56:48;;;;;;;5.10;3.05;;;;;;;;;;6219111;22;20093;-81
2020/12/22 00:59:14;;;;;;;4.97;3.25;;;;;;;;;;6215537;23;20044;-81
2020/12/22 01:01:40;;;;;;;5.40;3.28;;;;;;;;;;6215743;23;20506;-81
2020/12/22 01:04:06;;;;;;;4.72;2.88;;;;;;;;;;6215506;23;20016;-81
2020/12/22 01:06:36;;;;;;;4.75;3.17;;;;;;;;;;6215506;23;20016;-81
2020/12/22 01:09:04;;;;;;;4.30;2.97;;;;;;;;;;6216906;22;20443;-81
2020/12/22 01:11:33;;;;;;;6.72;3.67;;;;;;;;;;6217954;23;20311;-81
2020/12/22 01:14:00;;;;;;;7.03;3.75;;;;;;;;;;6190927;22;20013;-81
2020/12/22 01:16:26;;;;;;;5.00;3.40;;;;;;;;;;6217088;23;20024;-81
2020/12/22 01:18:52;;;;;;;5.05;2.90;;;;;;;;;;6217493;23;20024;-82
2020/12/22 01:21:19;;;;;;;5.20;3.53;;;;;;;;;;6217793;22;20459;-81
2020/12/22 01:23:45;;;;;;;5.20;3.28;;;;;;;;;;6215985;22;20320;-82
2020/12/22 01:26:18;;;;;;;4.55;2.92;;;;;;;;;;6217460;23;20024;-81
2020/12/22 01:28:44;;;;;;;5.60;3.03;;;;;;;;;;6191479;22;20025;-81
2020/12/22 01:31:11;;;;;;;5.35;3.67;;;;;;;;;;6218496;23;20050;-81
2020/12/22 01:33:38;;;;;;;5.28;3.22;;;;;;;;;;6218089;23;20095;-81
2020/12/22 01:36:04;;;;;;;5.60;3.95;;;;;;;;;;6218698;22;20066;-81
2020/12/22 01:38:30;;;;;;;8.82;4.13;;;;;;;;;;6217908;23;20040;-81
2020/12/22 01:40:57;;;;;;;4.50;3.00;;;;;;;;;;6218613;23;20409;-81
2020/12/22 01:43:23;;;;;;;4.80;3.55;;;;;;;;;;6218635;23;20350;-81
2020/12/22 01:45:49;;;;;;;5.63;4.07;;;;;;;;;;6216140;23;20437;-81
2020/12/22 01:48:16;;;;;;;6.25;4.18;;;;;;;;;;6218250;23;20088;-81
2020/12/22 01:50:42;;;;;;;5.13;3.70;;;;;;;;;;6218570;23;20048;-81
2020/12/22 01:53:08;;;;;;;6.50;4.20;;;;;;;;;;6216220;23;20017;-81
2020/12/22 01:55:34;;;;;;;5.38;4.35;;;;;;;;;;6216277;22;20016;-81
2020/12/22 01:58:00;;;;;;;5.53;4.00;;;;;;;;;;6217420;23;20013;-81
2020/12/22 02:00:27;;;;;;;5.85;4.40;;;;;;;;;;6216078;23;20127;-81
2020/12/22 02:02:53;;;;;;;5.32;3.95;;;;;;;;;;6216563;23;20478;-81
2020/12/22 02:05:22;;;;;;;6.78;3.92;;;;;;;;;;6217031;23;20433;-81
2020/12/22 02:07:49;;;;;;;7.13;5.10;;;;;;;;;;6217014;23;20103;-81
2020/12/22 02:10:15;;;;;;;5.93;4.35;;;;;;;;;;6216641;23;20016;-81
2020/12/22 02:12:41;;;;;;;6.90;4.57;;;;;;;;;;6216574;23;20145;-81
2020/12/22 02:15:08;;;;;;;5.93;4.30;;;;;;;;;;6215912;23;20020;-81
2020/12/22 02:17:36;;;;;;;7.22;4.18;;;;;;;;;;6216450;23;20087;-81
2020/12/22 02:20:03;;;;;;;5.57;3.78;;;;;;;;;;6217268;23;20024;-81
2020/12/22 02:22:40;;;;;;;;;;;;;;;;;;;;;
2020/12/22 02:25:17;;;;;;;9.93;4.32;;;;;;;;;;6216951;23;20088;-81
2020/12/22 02:27:43;;;;;;;6.03;4.22;;;;;;;;;;6217868;23;20020;-81
2020/12/22 02:30:10;;;;;;;5.45;4.00;;;;;;;;;;6219175;23;20097;-81
2020/12/22 02:32:37;;;;;;;5.95;4.35;;;;;;;;;;6219055;22;20017;-81
2020/12/22 02:35:04;;;;;;;6.53;4.50;;;;;;;;;;6216770;22;20020;-81
2020/12/22 02:37:32;;;;;;;5.70;3.95;;;;;;;;;;6192477;23;20021;-81
2020/12/22 02:39:58;;;;;;;5.28;3.78;;;;;;;;;;6167647;22;20017;-81
2020/12/22 02:42:25;;;;;;;5.45;3.58;;;;;;;;;;6192023;23;20021;-81
2020/12/22 02:44:51;;;;;;;7.07;4.10;;;;;;;;;;6216305;23;20021;-81
2020/12/22 02:47:17;;;;;;;5.78;4.32;;;;;;;;;;6217878;23;20090;-81
2020/12/22 02:49:44;;;;;;;7.07;4.20;;;;;;;;;;6217119;22;20047;-80
2020/12/22 02:52:10;;;;;;;6.10;3.92;;;;;;;;;;6190009;23;20021;-81
2020/12/22 02:54:38;;;;;;;6.65;4.15;;;;;;;;;;6216412;23;20096;-81
2020/12/22 02:57:05;;;;;;;6.03;4.20;;;;;;;;;;6189552;23;20066;-81
2020/12/22 02:59:32;;;;;;;6.25;3.50;;;;;;;;;;6215421;23;20009;-81
2020/12/22 03:01:58;;;;;;;6.50;4.30;;;;;;;;;;6216734;23;20016;-81
2020/12/22 03:04:24;;;;;;;6.95;3.92;;;;;;;;;;6216753;23;20087;-81
2020/12/22 03:06:52;;;;;;;6.90;4.28;;;;;;;;;;6216916;23;20436;-81
2020/12/22 03:09:18;;;;;;;6.90;4.28;;;;;;;;;;6217368;23;20077;-81
2020/12/22 03:11:47;;;;;;;5.75;3.58;;;;;;;;;;6214472;23;20092;-81
2020/12/22 03:14:13;;;;;;;6.90;4.38;;;;;;;;;;6217192;23;20096;-81
2020/12/22 03:16:39;;;;;;;5.93;4.05;;;;;;;;;;6215898;23;20051;-81
2020/12/22 03:19:05;;;;;;;6.43;4.13;;;;;;;;;;6216644;23;20051;-81
2020/12/22 03:21:31;;;;;;;5.57;3.78;;;;;;;;;;6217502;23;20020;-81
2020/12/22 03:23:58;;;;;;;4.50;3.20;;;;;;;;;;6218493;23;20309;-81
2020/12/22 03:26:26;;;;;;;6.53;4.15;;;;;;;;;;6217971;23;20033;-81
2020/12/22 03:28:55;;;;;;;6.28;3.72;;;;;;;;;;6218022;22;20020;-81
2020/12/22 03:31:22;;;;;;;5.10;3.55;;;;;;;;;;6219302;23;20073;-81
2020/12/22 03:33:50;;;;;;;5.40;4.15;;;;;;;;;;6193304;23;20021;-81
2020/12/22 03:36:16;;;;;;;6.65;3.85;;;;;;;;;;6219730;23;20027;-81
2020/12/22 03:38:42;;;;;;;5.60;3.95;;;;;;;;;;6220701;23;20021;-81
2020/12/22 03:41:09;;;;;;;5.97;3.70;;;;;;;;;;6225581;23;20023;-81
2020/12/22 03:43:35;;;;;;;5.90;4.30;;;;;;;;;;6230307;23;20021;-81
2020/12/22 03:46:06;;;;;;;5.32;3.40;;;;;;;;;;6227695;23;20013;-81
2020/12/22 03:48:32;;;;;;;5.38;3.58;;;;;;;;;;6229720;23;20017;-79
2020/12/22 03:50:58;;;;;;;4.40;3.40;;;;;;;;;;6219264;23;20023;-81
2020/12/22 03:53:24;;;;;;;5.47;3.33;;;;;;;;;;6217274;23;20325;-81
2020/12/22 03:55:50;;;;;;;4.38;2.92;;;;;;;;;;6216209;23;20460;-81
2020/12/22 03:58:16;;;;;;;5.78;3.40;;;;;;;;;;6217002;23;20051;-81
2020/12/22 04:00:42;;;;;;;4.78;3.08;;;;;;;;;;6217400;23;20016;-81
2020/12/22 04:03:10;;;;;;;4.88;3.70;;;;;;;;;;6216932;23;20032;-81
2020/12/22 04:05:36;;;;;;;5.28;3.42;;;;;;;;;;6190406;23;20099;-81
2020/12/22 04:08:02;;;;;;;5.93;3.40;;;;;;;;;;6217570;23;20052;-81
2020/12/22 04:10:28;;;;;;;4.70;3.20;;;;;;;;;;6217123;22;20048;-81
2020/12/22 04:12:54;;;;;;;11.45;3.33;;;;;;;;;;6188088;22;20023;-82
2020/12/22 04:15:20;;;;;;;4.88;3.33;;;;;;;;;;6217943;23;20028;-81
2020/12/22 04:17:46;;;;;;;5.15;3.08;;;;;;;;;;6218548;23;20031;-81
2020/12/22 04:20:13;;;;;;;3.63;2.50;;;;;;;;;;6219766;22;20473;-81
2020/12/22 04:22:39;;;;;;;4.35;2.88;;;;;;;;;;6218995;23;20051;-81
2020/12/22 04:25:05;;;;;;;4.53;2.78;;;;;;;;;;6217209;22;20099;-82
2020/12/22 04:27:32;;;;;;;3.85;2.20;;;;;;;;;;6217229;23;20100;-82
2020/12/22 04:29:58;;;;;;;6.00;3.10;;;;;;;;;;6216913;23;20012;-81
2020/12/22 04:32:24;;;;;;;5.03;2.70;;;;;;;;;;6217470;22;20017;-81
2020/12/22 04:34:51;;;;;;;6.05;2.97;;;;;;;;;;6217056;23;20051;-81
2020/12/22 04:37:18;;;;;;;4.97;2.58;;;;;;;;;;6190224;23;20023;-81
2020/12/22 04:39:44;;;;;;;4.40;2.55;;;;;;;;;;6191264;23;20021;-81
2020/12/22 04:42:10;;;;;;;4.28;2.67;;;;;;;;;;6215023;23;20050;-81
2020/12/22 04:44:36;;;;;;;3.70;2.22;;;;;;;;;;6216421;23;20036;-82
2020/12/22 04:47:04;;;;;;;4.40;3.20;;;;;;;;;;6214620;22;20104;-82
2020/12/22 04:49:31;;;;;;;4.10;2.92;;;;;;;;;;6216694;23;20313;-81
2020/12/22 04:51:58;;;;;;;5.95;2.42;;;;;;;;;;6216461;23;20095;-81
2020/12/22 04:54:25;;;;;;;4.97;3.30;;;;;;;;;;6217416;23;20039;-81
2020/12/22 04:56:53;;;;;;;3.33;2.03;;;;;;;;;;6217318;23;20016;-81
2020/12/22 04:59:19;;;;;;;3.95;2.45;;;;;;;;;;6216900;23;20038;-81
2020/12/22 05:01:45;;;;;;;4.20;3.13;;;;;;;;;;6215943;23;20387;-81
2020/12/22 05:04:13;;;;;;;3.47;2.33;;;;;;;;;;6215723;23;20016;-82
2020/12/22 05:06:39;;;;;;;4.63;2.03;;;;;;;;;;6216274;23;20017;-81
2020/12/22 05:09:08;;;;;;;4.03;2.30;;;;;;;;;;6215454;23;20019;-81
2020/12/22 05:11:36;;;;;;;3.70;2.00;;;;;;;;;;6215906;23;20052;-81
2020/12/22 05:14:02;;;;;;;2.75;1.65;;;;;;;;;;6215528;23;20017;-81
2020/12/22 05:16:32;;;;;;;4.80;2.20;;;;;;;;;;6214844;22;20017;-81
2020/12/22 05:19:01;;;;;;;3.40;1.80;;;;;;;;;;6215797;23;20508;-81
2020/12/22 05:21:33;;;;;;;5.90;2.15;;;;;;;;;;6216017;23;20034;-82
2020/12/22 05:23:59;;;;;;;2.58;1.48;;;;;;;;;;6192107;23;20036;-81
2020/12/22 05:26:26;;;;;;;3.08;1.63;;;;;;;;;;6217840;23;20016;-81
2020/12/22 05:28:53;;;;;;;2.90;1.55;;;;;;;;;;6218315;23;20043;-81
2020/12/22 05:31:19;;;;;;;3.53;1.52;;;;;;;;;;6191326;23;20017;-82
2020/12/22 05:33:47;;;;;;;2.42;1.45;;;;;;;;;;6218707;23;20078;-81
2020/12/22 05:36:13;;;;;;;2.42;1.52;;;;;;;;;;6191880;23;20016;-81
2020/12/22 05:38:39;;;;;;;2.45;1.50;;;;;;;;;;6215963;22;20016;-81
2020/12/22 05:41:06;;;;;;;2.15;1.40;;;;;;;;;;6218349;23;20098;-81
2020/12/22 05:43:39;;;;;;;3.30;1.25;;;;;;;;;;6216833;22;20099;-81
2020/12/22 05:46:08;;;;;;;3.05;1.40;;;;;;;;;;6219299;23;20440;-81
2020/12/22 05:48:36;;;;;;;2.90;1.20;;;;;;;;;;6219768;23;20035;-81
2020/12/22 05:51:06;;;;;;;2.88;1.50;;;;;;;;;;6219034;23;20016;-81
2020/12/22 05:53:33;;;;;;;4.20;1.45;;;;;;;;;;6192343;23;20325;-81
2020/12/22 05:56:14;;;;;;;1.80;1.25;;;;;;;;;;6220486;23;20028;-81
2020/12/22 05:58:40;;;;;;;2.38;1.40;;;;;;;;;;6220163;23;20024;-82
2020/12/22 06:01:11;;;;;;;3.38;1.50;;;;;;;;;;6219670;23;20012;-82
2020/12/22 06:03:39;;;;;;;2.53;1.35;;;;;;;;;;6219972;23;20017;-82
2020/12/22 06:06:21;;;;;;;2.13;1.42;;;;;;;;;;6219982;23;20023;-81
2020/12/22 06:08:49;;;;;;;1.88;1.10;;;;;;;;;;6220625;23;20081;-81
2020/12/22 06:11:24;;;;;;;3.63;1.92;;;;;;;;;;6219978;23;20020;-83
2020/12/22 06:17:10;;;;;;;3.35;1.65;;;;;;;;;;6222824;22;20017;-82
2020/12/22 06:19:52;;;;;;;2.05;1.30;;;;;;;;;;6219065;23;20425;-83
2020/12/22 06:22:37;;;;;;;2.53;1.40;;;;;;;;;;6212857;23;20554;-84
2020/12/22 06:25:05;;;;;;;2.70;1.40;;;;;;;;;;6219782;23;20017;-83
2020/12/22 06:27:47;;;;;;;2.03;1.27;;;;;;;;;;6218205;23;20019;-83
2020/12/22 06:31:06;;;;;;;1.88;1.20;;;;;;;;;;6192730;23;20017;-85
2020/12/22 06:33:37;;;;;;;2.40;1.20;;;;;;;;;;6192013;23;20024;-82
2020/12/22 06:36:05;;;;;;;2.53;1.42;;;;;;;;;;6212550;23;20020;-82
2020/12/22 06:38:50;;;;;;;2.30;1.67;;;;;;;;;;6211331;23;20016;-83
2020/12/22 06:41:46;;;;;;;2.50;1.20;;;;;;;;;;6180767;23;20034;-83
2020/12/22 06:44:14;;;;;;;1.77;0.98;;;;;;;;;;6213341;23;20016;-83
2020/12/22 06:46:51;;;;;;;;;;;;;;;;;;;;;
2020/12/22 06:49:36;;;;;;;1.40;1.00;;;;;;;;;;6214532;23;20055;-83
2020/12/22 06:52:08;;;;;;;3.13;1.92;;;;;;;;;;6213752;23;20021;-83
2020/12/22 06:54:34;;;;;;;3.70;1.83;;;;;;;;;;6212743;22;20040;-83
2020/12/22 06:57:01;;;;;;;4.07;2.58;;;;;;;;;;6213929;22;20301;-83
2020/12/22 06:59:48;;;;;;;4.60;2.50;;;;;;;;;;6212894;23;20100;-83
2020/12/22 07:02:35;;;;;;;3.55;2.40;;;;;;;;;;6209926;23;20032;-83
2020/12/22 07:05:05;;;;;;;3.60;2.15;;;;;;;;;;6210677;23;20020;-83
2020/12/22 07:07:56;;;;;;;3.03;2.03;;;;;;;;;;6209720;23;20520;-83
2020/12/22 07:10:23;;;;;;;3.63;2.03;;;;;;;;;;6210714;23;20027;-83
2020/12/22 07:12:50;;;;;;;4.50;2.00;;;;;;;;;;6210902;23;20040;-83
2020/12/22 07:15:19;;;;;;;4.18;0.95;;;;;;;;;;6210808;23;20101;-83
2020/12/22 07:17:46;;;;;;;1.95;1.10;;;;;;;;;;6210582;23;20028;-82
2020/12/22 07:20:15;;;;;;;2.70;1.23;;;;;;;;;;6210381;23;20046;-84
2020/12/22 07:22:41;;;;;;;2.33;1.17;;;;;;;;;;6211549;23;20021;-83
2020/12/22 07:25:07;;;;;;;2.05;1.38;;;;;;;;;;6211213;23;20021;-84
2020/12/22 07:27:35;;;;;;;2.85;1.40;;;;;;;;;;6209980;23;20451;-84
2020/12/22 07:30:02;;;;;;;3.08;1.50;;;;;;;;;;6211794;23;20024;-84
2020/12/22 07:32:29;;;;;;;1.48;0.75;;;;;;;;;;6183396;23;20089;-83
2020/12/22 07:34:55;;;;;;;6.13;1.02;;;;;;;;;;6184576;23;20029;-83
2020/12/22 07:37:22;;;;;;;1.75;1.15;;;;;;;;;;6183939;23;20044;-83
2020/12/22 07:39:48;;;;;;;5.35;1.00;;;;;;;;;;6211136;23;20048;-83
2020/12/22 07:42:17;;;;;;;3.53;1.25;;;;;;;;;;6210407;23;20042;-83
2020/12/22 07:44:44;;;;;;;1.92;1.20;;;;;;;;;;6212921;23;20027;-84
2020/12/22 07:47:11;;;;;;;2.65;1.42;;;;;;;;;;6191879;23;20020;-83
2020/12/22 07:49:38;;;;;;;1.90;1.10;;;;;;;;;;6190482;23;20409;-83
2020/12/22 07:52:04;;;;;;;2.78;1.42;;;;;;;;;;6218684;23;20013;-83
2020/12/22 07:54:32;;;;;;;4.35;1.73;;;;;;;;;;6218735;23;20081;-83
2020/12/22 07:57:01;;;;;;;2.50;1.10;;;;;;;;;;6218610;22;20020;-83
2020/12/22 07:59:28;;;;;;;3.10;1.38;;;;;;;;;;6216144;23;20061;-83
2020/12/22 08:01:56;;;;;;;1.00;0.60;;;;;;;;;;6218806;23;20099;-84
2020/12/22 08:04:23;;;;;;;2.17;1.08;;;;;;;;;;6216382;23;20016;-83
2020/12/22 08:06:56;;;;;;;1.48;0.65;;;;;;;;;;6218268;22;20024;-84
2020/12/22 08:09:24;;;;;;;4.13;0.82;;;;;;;;;;6218329;23;20024;-83
2020/12/22 08:11:56;;;;;;;1.75;0.80;;;;;;;;;;6218252;23;20472;-84
2020/12/22 08:14:25;;;;;;;3.88;0.70;;;;;;;;;;6192515;23;20016;-83
2020/12/22 08:16:54;;;;;;;0.70;0.50;;;;;;;;;;6219494;22;20325;-84
2020/12/22 08:19:21;;;;;;;2.75;0.68;;;;;;;;;;6218858;22;20016;-84
2020/12/22 08:21:48;;;;;;;1.50;0.77;;;;;;;;;;6213313;23;20023;-84
2020/12/22 08:24:16;;;;;;;0.90;0.47;;;;;;;;;;6212925;23;20107;-85
2020/12/22 08:26:45;;;;;;;0.45;0.40;;;;;;;;;;6184300;23;20025;-85
2020/12/22 08:29:15;;;;;;;2.03;1.00;;;;;;;;;;6211916;23;20318;-85
2020/12/22 08:31:42;;;;;;;0.95;0.60;;;;;;;;;;6183623;23;20024;-85
2020/12/22 08:34:12;;;;;;;21.08;3.85;;;;;;;;;;6209732;23;20027;-84
2020/12/22 08:36:41;;;;;;;1.00;0.70;;;;;;;;;;6210861;22;20021;-86
2020/12/22 08:39:12;;;;;;;1.00;0.65;;;;;;;;;;6188505;23;20501;-84
2020/12/22 08:41:41;;;;;;;2.90;0.68;;;;;;;;;;6181486;22;20369;-85
2020/12/22 08:44:09;;;;;;;1.45;0.50;;;;;;;;;;6181252;23;20100;-85
2020/12/22 08:46:37;;;;;;;1.02;0.40;;;;;;;;;;6208355;22;20024;-82
2020/12/22 08:49:13;;;;;;;1.90;0.60;;;;;;;;;;6211302;22;20017;-83
2020/12/22 08:52:16;;;;;;;0.75;0.40;;;;;;;;;;6217215;22;20455;-83
2020/12/22 08:54:50;;;;;;;1.80;0.65;;;;;;;;;;6215854;22;20016;-83
2020/12/22 08:57:24;;;;;;;1.30;0.63;;;;;;;;;;6190098;23;20078;-83
2020/12/22 08:59:53;;;;;;;1.20;0.55;;;;;;;;;;6215861;23;20444;-83
2020/12/22 09:02:43;;;;;;;0.88;0.50;;;;;;;;;;6216688;22;20035;-84
2020/12/22 09:05:21;;;;;;;1.05;0.50;;;;;;;;;;6177438;23;20023;-83
2020/12/22 09:08:02;;;;;;;1.67;0.50;;;;;;;;;;6187845;23;20474;-83
2020/12/22 09:10:40;;;;;;;0.38;0.35;;;;;;;;;;6212573;23;20020;-84
2020/12/22 09:13:17;;;;;;;1.10;0.55;;;;;;;;;;6214845;23;20013;-83
2020/12/22 09:16:11;;;;;;;1.35;0.43;;;;;;;;;;6189802;23;20040;-83
2020/12/22 09:18:43;;;;;;;1.90;1.00;;;;;;;;;;6192147;23;20028;-83
2020/12/22 09:21:09;;;;;;;1.10;0.80;;;;;;;;;;6218619;23;20012;-82
2020/12/22 09:23:45;;;;;;;2.35;0.93;;;;;;;;;;6218804;23;20016;-82
2020/12/22 09:26:13;;;;;;;1.20;0.50;;;;;;;;;;6194128;22;20426;-82
2020/12/22 09:28:39;;;;;;;3.63;1.55;;;;;;;;;;6218523;23;20017;-82
2020/12/22 09:31:05;;;;;;;2.60;0.75;;;;;;;;;;6219875;22;20024;-82
2020/12/22 09:33:31;;;;;;;1.95;1.00;;;;;;;;;;6219063;22;20009;-82
2020/12/22 09:36:00;;;;;;;2.47;0.85;;;;;;;;;;6219742;22;20309;-83
2020/12/22 09:38:28;;;;;;;1.73;0.55;;;;;;;;;;6225586;23;20012;-83
2020/12/22 09:40:56;;;;;;;2.00;0.60;;;;;;;;;;6196067;22;20048;-84
2020/12/22 09:43:23;;;;;;;1.08;0.40;;;;;;;;;;6220303;23;20027;-84
2020/12/22 09:45:59;;;;;;;1.10;0.50;;;;;;;;;;6192583;22;20016;-84
2020/12/22 09:48:32;;;;;;;;;;;;;;;;;;6220583;23;20054;-85
2020/12/22 09:51:10;;;;;;;0.93;0.60;;;;;;;;;;6218655;23;19915;-84
2020/12/22 09:53:52;;;;;;;0.77;0.52;;;;;;;;;;6193719;23;20013;-84
2020/12/22 09:56:18;;;;;;;3.03;1.05;;;;;;;;;;6192190;22;20024;-83
2020/12/22 09:58:44;;;;;;;3.25;0.82;;;;;;;;;;6218568;23;20105;-83
2020/12/22 10:01:10;;;;;;;5.63;1.30;;;;;;;;;;6192433;23;20043;-84
2020/12/22 10:03:36;;;;;;;0.93;0.40;;;;;;;;;;6219751;23;20067;-84
2020/12/22 10:06:07;;;;;;;2.33;0.57;;;;;;;;;;6218057;23;20012;-84
2020/12/22 10:08:35;;;;;;;2.17;1.00;;;;;;;;;;6192671;23;20352;-84
2020/12/22 10:11:07;;;;;;;1.58;1.08;;;;;;;;;;6219887;23;20070;-84
2020/12/22 10:13:37;;;;;;;3.63;0.93;;;;;;;;;;6218630;22;20023;-84
2020/12/22 10:16:11;;;;;;;2.25;1.15;;;;;;;;;;6216503;23;20020;-84
2020/12/22 10:18:38;;;;;;;1.77;0.85;;;;;;;;;;6192460;23;20468;-84
2020/12/22 10:21:06;;;;;;;2.53;1.05;;;;;;;;;;6219423;23;20040;-84
2020/12/22 10:23:59;;;;;;;1.25;0.80;;;;;;;;;;6218931;23;20020;-84
2020/12/22 10:26:28;;;;;;;0.45;0.32;;;;;;;;;;6192631;23;20016;-84
2020/12/22 10:28:55;;;;;;;0.88;0.55;;;;;;;;;;6220025;23;20035;-83
2020/12/22 10:31:22;;;;;;;0.85;0.45;;;;;;;;;;6220050;22;20012;-84
2020/12/22 10:33:50;;;;;;;3.22;0.77;;;;;;;;;;6219817;22;20044;-84
2020/12/22 10:36:22;;;;;;;0.57;0.40;;;;;;;;;;6219403;23;20029;-83
2020/12/22 10:38:52;;;;;;;1.55;0.60;;;;;;;;;;6192764;23;20020;-83
2020/12/22 10:41:20;;;;;;;0.73;0.40;;;;;;;;;;6219589;23;20023;-83
2020/12/22 10:43:48;;;;;;;0.40;0.40;;;;;;;;;;6193223;23;20076;-84
2020/12/22 10:46:15;;;;;;;1.92;0.70;;;;;;;;;;6220555;23;20028;-84
2020/12/22 10:48:53;;;;;;;;;;;;;;;;;;;;;
2020/12/22 10:51:20;;;;;;;2.05;0.45;;;;;;;;;;6190239;23;20051;-84
2020/12/22 10:54:00;;;;;;;1.10;0.40;;;;;;;;;;6189123;22;20032;-84
2020/12/22 10:56:26;;;;;;;1.15;0.50;;;;;;;;;;6187555;23;20025;-84
2020/12/22 10:58:58;;;;;;;0.93;0.60;;;;;;;;;;6189007;22;20082;-83
2020/12/22 11:01:51;;;;;;;2.80;0.68;;;;;;;;;;6190009;23;20337;-86
2020/12/22 11:07:29;;;;;;;2.03;0.77;;;;;;;;;;6182357;23;20018;-84
2020/12/22 11:09:55;;;;;;;0.50;0.43;;;;;;;;;;6183552;23;20028;-84
2020/12/22 11:12:30;;;;;;;0.60;0.40;;;;;;;;;;6184542;23;20017;-84
2020/12/22 11:15:00;;;;;;;1.25;0.50;;;;;;;;;;6184658;22;20028;-85
2020/12/22 11:17:28;;;;;;;1.48;0.43;;;;;;;;;;6185449;23;20061;-84
2020/12/22 11:23:33;;;;;;;;;;;;;;;;;;;;;
2020/12/22 11:26:06;;;;;;;;;;;;;;;;;;6194574;22;20044;-84
2020/12/22 11:28:35;;;;;;;2.28;1.30;;;;;;;;;;6186913;23;19989;-85
2020/12/22 11:31:04;;;;;;;1.55;0.70;;;;;;;;;;6188485;23;20017;-84
2020/12/22 11:33:41;;;;;;;;;;;;;;;;;;;;;
2020/12/22 11:36:11;;;;;;;2.10;0.93;;;;;;;;;;6187072;23;20057;-84
2020/12/22 11:38:39;;;;;;;3.40;0.82;;;;;;;;;;6188774;22;20017;-84
2020/12/22 11:41:06;;;;;;;1.30;0.80;;;;;;;;;;6186860;23;20066;-84
2020/12/22 11:43:35;;;;;;;2.00;0.90;;;;;;;;;;6188846;22;20017;-85
2020/12/22 11:46:10;;;;;;;5.60;1.95;;;;;;;;;;6187897;22;20052;-84
2020/12/22 11:48:45;;;;;;;7.22;2.97;;;;;;;;;;6183361;23;20024;-84
2020/12/22 11:51:18;;;;;;;5.97;2.00;;;;;;;;;;6180567;22;20520;-84
2020/12/22 11:53:50;;;;;;;3.13;1.92;;;;;;;;;;6182092;23;20509;-84
2020/12/22 11:56:28;;;;;;;2.80;1.25;;;;;;;;;;6182380;23;20429;-84
2020/12/22 11:59:01;;;;;;;2.13;1.00;;;;;;;;;;6178421;23;20328;-84
2020/12/22 12:01:30;;;;;;;1.65;1.02;;;;;;;;;;6155345;23;20024;-84
2020/12/22 12:03:57;;;;;;;1.73;0.93;;;;;;;;;;6182476;22;20318;-84
2020/12/22 12:06:31;;;;;;;0.88;0.50;;;;;;;;;;6182243;23;20021;-85
2020/12/22 12:09:06;;;;;;;1.27;0.60;;;;;;;;;;6185351;23;20013;-84
2020/12/22 12:11:44;;;;;;;2.23;0.73;;;;;;;;;;6187825;23;20452;-85
2020/12/22 12:14:13;;;;;;;1.48;0.73;;;;;;;;;;6190126;23;20248;-84
2020/12/22 12:16:49;;;;;;;0.88;0.50;;;;;;;;;;6189121;23;20020;-85
2020/12/22 12:19:28;;;;;;;;;;;;;;;;;;;;;
2020/12/22 12:21:57;;;;;;;0.82;0.60;;;;;;;;;;6187419;23;20077;-85
2020/12/22 12:24:25;;;;;;;2.30;0.70;;;;;;;;;;6184219;23;20044;-85
2020/12/22 12:26:57;;;;;;;1.15;0.70;;;;;;;;;;6184590;23;20021;-84
2020/12/22 12:29:26;;;;;;;1.75;0.70;;;;;;;;;;6184302;23;20021;-84
2020/12/22 12:32:01;;;;;;;1.02;0.63;;;;;;;;;;6182017;23;20333;-85
2020/12/22 12:34:33;;;;;;;1.30;0.65;;;;;;;;;;6183486;23;20135;-84
2020/12/22 12:36:59;;;;;;;0.75;0.43;;;;;;;;;;6187097;22;20017;-84
2020/12/22 12:39:39;;;;;;;5.50;0.60;;;;;;;;;;6186912;23;20090;-84
2020/12/22 12:42:29;;;;;;;0.93;0.50;;;;;;;;;;6189168;23;20021;-84
2020/12/22 12:45:01;;;;;;;1.38;0.50;;;;;;;;;;6187464;23;20025;-86
2020/12/22 12:47:37;;;;;;;2.25;0.77;;;;;;;;;;6184432;22;20020;-85
2020/12/22 12:50:16;;;;;;;3.80;1.70;;;;;;;;;;6188148;23;20104;-85
2020/12/22 12:52:56;;;;;;;;;;;;;;;;;;;;;
2020/12/22 12:55:31;;;;;;;1.95;1.20;;;;;;;;;;6194445;23;20013;-85
2020/12/22 13:01:02;;;;;;;;;;;;;;;;;;;;;
2020/12/22 13:03:33;;;;;;;;;;;;;;;;;;6189324;23;20040;-84
2020/12/22 13:06:13;;;;;;;;;;;;;;;;;;;;;
2020/12/22 13:08:46;;;;;;;1.67;0.90;;;;;;;;;;6191275;23;20056;-84
2020/12/22 13:11:35;;;;;;;1.35;0.80;;;;;;;;;;6189427;22;20028;-84
2020/12/22 13:14:06;;;;;;;1.45;0.65;;;;;;;;;;6163985;23;20017;-84
2020/12/22 13:16:40;;;;;;;2.83;1.38;;;;;;;;;;6188060;23;20020;-84
2020/12/22 13:19:14;;;;;;;1.60;0.90;;;;;;;;;;6189922;22;20075;-84
2020/12/22 13:21:41;;;;;;;2.88;1.20;;;;;;;;;;6189912;23;20028;-85
2020/12/22 13:24:38;;;;;;;2.03;1.00;;;;;;;;;;6190611;23;20475;-85
2020/12/22 13:27:24;;;;;;;3.70;1.92;;;;;;;;;;6192127;22;20009;-83
2020/12/22 13:30:14;;;;;;;2.53;1.50;;;;;;;;;;6184832;23;20035;-84
2020/12/22 13:32:43;;;;;;;1.42;0.60;;;;;;;;;;6182966;23;20017;-84
2020/12/22 13:35:45;;;;;;;2.25;0.82;;;;;;;;;;6189565;23;20374;-84
2020/12/22 13:38:14;;;;;;;2.72;1.35;;;;;;;;;;6175908;23;20051;-84
2020/12/22 13:40:40;;;;;;;2.78;1.40;;;;;;;;;;6162024;23;20504;-84
2020/12/22 13:43:15;;;;;;;2.88;1.42;;;;;;;;;;6189993;23;20017;-84
2020/12/22 13:45:41;;;;;;;3.75;1.85;;;;;;;;;;6189012;23;20021;-83
2020/12/22 13:48:11;;;;;;;3.53;2.00;;;;;;;;;;6204885;22;20470;-83
2020/12/22 13:50:39;;;;;;;2.40;1.15;;;;;;;;;;6217913;22;20052;-83
2020/12/22 13:53:05;;;;;;;2.42;1.45;;;;;;;;;;6191407;23;20051;-84
2020/12/22 13:55:31;;;;;;;2.90;1.40;;;;;;;;;;6219482;22;20300;-83
2020/12/22 13:58:30;;;;;;;;;;;;;;;;;;;;;
2020/12/22 14:00:57;;;;;;;3.08;1.70;;;;;;;;;;6209204;23;20374;-84
2020/12/22 14:03:23;;;;;;;2.92;1.60;;;;;;;;;;6219861;23;20020;-84
2020/12/22 14:05:54;;;;;;;2.40;0.98;;;;;;;;;;6220718;23;20027;-84
2020/12/22 14:08:32;;;;;;;3.08;1.10;;;;;;;;;;6194557;23;20104;-84
2020/12/22 14:11:01;;;;;;;2.65;1.65;;;;;;;;;;6195956;23;20027;-83
2020/12/22 14:13:29;;;;;;;2.22;1.35;;;;;;;;;;6230742;23;20016;-84
2020/12/22 14:16:17;;;;;;;3.15;1.60;;;;;;;;;;6229671;23;20025;-83
2020/12/22 14:18:59;;;;;;;1.23;0.73;;;;;;;;;;6203214;23;20028;-84
2020/12/22 14:21:32;;;;;;;2.10;1.10;;;;;;;;;;6221654;23;20012;-84
2020/12/22 14:23:58;;;;;;;1.73;1.00;;;;;;;;;;6219337;23;20294;-84
2020/12/22 14:26:33;;;;;;;1.73;0.68;;;;;;;;;;6192465;23;20020;-84
2020/12/22 14:29:18;;;;;;;4.10;1.40;;;;;;;;;;6218837;23;20035;-84
2020/12/22 14:31:47;;;;;;;2.72;1.23;;;;;;;;;;6166174;23;20092;-84
2020/12/22 14:34:16;;;;;;;2.10;1.02;;;;;;;;;;6212337;23;20424;-84
2020/12/22 14:36:44;;;;;;;2.33;1.00;;;;;;;;;;6187276;23;20029;-84
2020/12/22 14:39:16;;;;;;;2.95;0.70;;;;;;;;;;6186853;23;20506;-84
2020/12/22 14:41:42;;;;;;;2.10;1.00;;;;;;;;;;6190490;23;20016;-84
2020/12/22 14:44:10;;;;;;;1.15;0.50;;;;;;;;;;6213982;23;20020;-84
2020/12/22 14:46:39;;;;;;;2.47;0.90;;;;;;;;;;6213031;22;20013;-84
2020/12/22 14:49:11;;;;;;;1.20;0.55;;;;;;;;;;6213566;23;20343;-84
2020/12/22 14:51:46;;;;;;;0.77;0.60;;;;;;;;;;6216052;23;20027;-84
2020/12/22 14:54:18;;;;;;;0.73;0.50;;;;;;;;;;6216955;22;20017;-84
2020/12/22 14:56:45;;;;;;;2.13;0.80;;;;;;;;;;6186102;23;20561;-84
2020/12/22 14:59:12;;;;;;;8.27;7.88;;;;;;;;;;6215113;23;20078;-83
2020/12/22 15:01:44;;;;;;;2.92;2.42;;;;;;;;;;6214880;23;20009;-83
2020/12/22 15:04:19;;;;;;;2.53;2.33;;;;;;;;;;6212750;23;20017;-84
2020/12/22 15:06:57;;;;;;;19.50;18.23;;;;;;;;;;6219514;23;20448;-84
2020/12/22 15:09:23;;;;;;;2.17;1.98;;;;;;;;;;6220205;22;20013;-84
2020/12/22 15:11:58;;;;;;;2.42;2.22;;;;;;;;;;6218983;23;20134;-84
2020/12/22 15:14:30;;;;;;;2.05;1.20;;;;;;;;;;6219515;23;20099;-83
2020/12/22 15:17:20;;;;;;;;;;;;;;;;;;;;;
2020/12/22 15:19:52;;;;;;;3.00;1.60;;;;;;;;;;6218794;23;20040;-83
2020/12/22 15:22:25;;;;;;;3.92;1.50;;;;;;;;;;6218964;23;20082;-83
2020/12/22 15:24:51;;;;;;;4.60;2.60;;;;;;;;;;6220745;23;20025;-84